sensor_id;sensor_type;location;lat;lon;timestamp;pressure;altitude;pressure_sealevel;temperature;humidity
71774;BME280;59607;52.130;5.430;2023-07-20T00:00:35;101518.47;;;16.97;100.00
71774;BME280;59607;52.130;5.430;2023-07-20T00:03:12;101524.22;;;17.00;100.00
71774;BME280;59607;52.130;5.430;2023-07-20T00:05:54;101519.75;;;17.01;100.00
71774;BME280;59607;52.130;5.430;2023-07-20T00:08:21;101519.50;;;16.96;100.00
71774;BME280;59607;52.130;5.430;2023-07-20T00:10:51;101517.88;;;16.95;100.00
71774;BME280;59607;52.130;5.430;2023-07-20T00:13:28;101521.31;;;16.95;100.00
71774;BME280;59607;52.130;5.430;2023-07-20T00:15:58;101523.34;;;16.93;100.00
71774;BME280;59607;52.130;5.430;2023-07-20T00:18:24;101519.88;;;16.93;100.00
71774;BME280;59607;52.130;5.430;2023-07-20T00:20:54;101518.25;;;16.92;100.00
71774;BME280;59607;52.130;5.430;2023-07-20T00:23:30;101513.34;;;16.88;100.00
71774;BME280;59607;52.130;5.430;2023-07-20T00:26:03;101519.81;;;16.86;100.00
71774;BME280;59607;52.130;5.430;2023-07-20T00:28:30;101516.28;;;16.78;100.00
71774;BME280;59607;52.130;5.430;2023-07-20T00:30:59;101516.22;;;16.72;100.00
71774;BME280;59607;52.130;5.430;2023-07-20T00:33:31;101517.38;;;16.69;100.00
71774;BME280;59607;52.130;5.430;2023-07-20T00:36:04;101513.94;;;16.69;100.00
71774;BME280;59607;52.130;5.430;2023-07-20T00:38:30;101519.59;;;16.65;100.00
71774;BME280;59607;52.130;5.430;2023-07-20T00:40:57;101512.91;;;16.70;100.00
71774;BME280;59607;52.130;5.430;2023-07-20T00:43:26;101505.72;;;16.63;100.00
71774;BME280;59607;52.130;5.430;2023-07-20T00:45:56;101504.28;;;16.61;100.00
71774;BME280;59607;52.130;5.430;2023-07-20T00:48:23;101517.53;;;16.61;100.00
71774;BME280;59607;52.130;5.430;2023-07-20T00:50:58;101512.69;;;16.49;100.00
71774;BME280;59607;52.130;5.430;2023-07-20T00:53:26;101513.25;;;16.45;100.00
71774;BME280;59607;52.130;5.430;2023-07-20T00:55:59;101518.72;;;16.43;100.00
71774;BME280;59607;52.130;5.430;2023-07-20T00:58:26;101509.06;;;16.35;100.00
71774;BME280;59607;52.130;5.430;2023-07-20T01:00:52;101514.53;;;16.34;100.00
71774;BME280;59607;52.130;5.430;2023-07-20T01:03:27;101512.72;;;16.34;100.00
71774;BME280;59607;52.130;5.430;2023-07-20T01:09:11;101520.47;;;16.36;100.00
71774;BME280;59607;52.130;5.430;2023-07-20T01:14:16;101525.50;;;16.31;100.00
71774;BME280;59607;52.130;5.430;2023-07-20T01:16:46;101517.75;;;16.29;100.00
71774;BME280;59607;52.130;5.430;2023-07-20T01:19:16;101520.28;;;16.22;100.00
71774;BME280;59607;52.130;5.430;2023-07-20T01:24:58;101515.47;;;16.11;100.00
71774;BME280;59607;52.130;5.430;2023-07-20T01:28:01;101524.78;;;16.07;100.00
71774;BME280;59607;52.130;5.430;2023-07-20T01:30:51;101519.03;;;16.03;100.00
71774;BME280;59607;52.130;5.430;2023-07-20T01:33:25;101531.78;;;15.99;100.00
71774;BME280;59607;52.130;5.430;2023-07-20T01:36:00;101520.91;;;15.94;100.00
71774;BME280;59607;52.130;5.430;2023-07-20T01:38:28;101531.41;;;15.87;100.00
71774;BME280;59607;52.130;5.430;2023-07-20T01:41:02;101528.94;;;15.86;100.00
71774;BME280;59607;52.130;5.430;2023-07-20T01:43:29;101525.19;;;15.80;100.00
71774;BME280;59607;52.130;5.430;2023-07-20T01:45:58;101526.19;;;15.79;100.00
71774;BME280;59607;52.130;5.430;2023-07-20T01:48:29;101522.91;;;15.77;100.00
71774;BME280;59607;52.130;5.430;2023-07-20T01:50:55;101528.53;;;15.74;100.00
71774;BME280;59607;52.130;5.430;2023-07-20T01:53:26;101524.63;;;15.70;100.00
71774;BME280;59607;52.130;5.430;2023-07-20T01:55:55;101530.09;;;15.68;100.00
71774;BME280;59607;52.130;5.430;2023-07-20T01:58:24;101532.28;;;15.64;100.00
71774;BME280;59607;52.130;5.430;2023-07-20T02:00:54;101535.75;;;15.65;100.00
71774;BME280;59607;52.130;5.430;2023-07-20T02:03:20;101535.94;;;15.63;100.00
71774;BME280;59607;52.130;5.430;2023-07-20T02:05:48;101537.09;;;15.61;100.00
71774;BME280;59607;52.130;5.430;2023-07-20T02:08:30;101531.97;;;15.59;100.00
71774;BME280;59607;52.130;5.430;2023-07-20T02:11:00;101527.72;;;15.58;100.00
71774;BME280;59607;52.130;5.430;2023-07-20T02:13:27;101528.53;;;15.59;100.00
71774;BME280;59607;52.130;5.430;2023-07-20T02:16:07;101532.47;;;15.63;100.00
71774;BME280;59607;52.130;5.430;2023-07-20T02:18:34;101535.75;;;15.65;100.00
71774;BME280;59607;52.130;5.430;2023-07-20T02:21:04;101536.56;;;15.65;100.00
71774;BME280;59607;52.130;5.430;2023-07-20T02:23:31;101533.72;;;15.67;100.00
71774;BME280;59607;52.130;5.430;2023-07-20T02:26:01;101538.66;;;15.70;100.00
71774;BME280;59607;52.130;5.430;2023-07-20T02:28:28;101537.84;;;15.70;100.00
71774;BME280;59607;52.130;5.430;2023-07-20T02:30:55;101531.09;;;15.67;100.00
71774;BME280;59607;52.130;5.430;2023-07-20T02:33:21;101533.47;;;15.62;100.00
71774;BME280;59607;52.130;5.430;2023-07-20T02:35:54;101535.63;;;15.58;100.00
71774;BME280;59607;52.130;5.430;2023-07-20T02:38:20;101534.34;;;15.54;100.00
71774;BME280;59607;52.130;5.430;2023-07-20T02:40:55;101532.06;;;15.51;100.00
71774;BME280;59607;52.130;5.430;2023-07-20T02:43:21;101538.06;;;15.45;100.00
71774;BME280;59607;52.130;5.430;2023-07-20T02:45:50;101533.66;;;15.37;100.00
71774;BME280;59607;52.130;5.430;2023-07-20T02:48:21;101532.22;;;15.34;100.00
71774;BME280;59607;52.130;5.430;2023-07-20T02:50:48;101536.19;;;15.30;100.00
71774;BME280;59607;52.130;5.430;2023-07-20T02:53:16;101533.25;;;15.25;100.00
71774;BME280;59607;52.130;5.430;2023-07-20T02:55:42;101541.19;;;15.25;100.00
71774;BME280;59607;52.130;5.430;2023-07-20T02:58:08;101544.53;;;15.18;100.00
71774;BME280;59607;52.130;5.430;2023-07-20T03:00:35;101549.38;;;15.15;100.00
71774;BME280;59607;52.130;5.430;2023-07-20T03:03:11;101555.81;;;15.12;100.00
71774;BME280;59607;52.130;5.430;2023-07-20T03:05:43;101554.69;;;15.07;100.00
71774;BME280;59607;52.130;5.430;2023-07-20T03:08:14;101556.16;;;15.09;100.00
71774;BME280;59607;52.130;5.430;2023-07-20T03:10:43;101564.25;;;15.08;100.00
71774;BME280;59607;52.130;5.430;2023-07-20T03:13:12;101564.91;;;15.10;100.00
71774;BME280;59607;52.130;5.430;2023-07-20T03:15:40;101566.06;;;15.07;100.00
71774;BME280;59607;52.130;5.430;2023-07-20T03:18:07;101573.00;;;15.08;100.00
71774;BME280;59607;52.130;5.430;2023-07-20T03:20:36;101579.28;;;15.07;100.00
71774;BME280;59607;52.130;5.430;2023-07-20T03:23:03;101578.81;;;15.03;100.00
71774;BME280;59607;52.130;5.430;2023-07-20T03:25:30;101580.63;;;15.03;100.00
71774;BME280;59607;52.130;5.430;2023-07-20T03:27:59;101579.81;;;15.02;100.00
71774;BME280;59607;52.130;5.430;2023-07-20T03:30:26;101573.72;;;15.02;100.00
71774;BME280;59607;52.130;5.430;2023-07-20T03:32:52;101578.69;;;14.97;100.00
71774;BME280;59607;52.130;5.430;2023-07-20T03:35:24;101574.75;;;14.92;100.00
71774;BME280;59607;52.130;5.430;2023-07-20T03:37:50;101572.63;;;14.88;100.00
71774;BME280;59607;52.130;5.430;2023-07-20T03:40:19;101572.00;;;14.86;100.00
71774;BME280;59607;52.130;5.430;2023-07-20T03:42:49;101563.06;;;14.87;100.00
71774;BME280;59607;52.130;5.430;2023-07-20T03:45:17;101573.97;;;14.84;100.00
71774;BME280;59607;52.130;5.430;2023-07-20T03:47:59;101574.16;;;14.82;100.00
71774;BME280;59607;52.130;5.430;2023-07-20T03:50:26;101574.31;;;14.80;100.00
71774;BME280;59607;52.130;5.430;2023-07-20T03:52:53;101570.00;;;14.79;100.00
71774;BME280;59607;52.130;5.430;2023-07-20T03:55:19;101575.44;;;14.78;100.00
71774;BME280;59607;52.130;5.430;2023-07-20T03:57:46;101579.75;;;14.79;100.00
71774;BME280;59607;52.130;5.430;2023-07-20T04:00:26;101573.97;;;14.84;100.00
71774;BME280;59607;52.130;5.430;2023-07-20T04:02:55;101575.59;;;14.85;100.00
71774;BME280;59607;52.130;5.430;2023-07-20T04:05:25;101576.78;;;14.82;100.00
71774;BME280;59607;52.130;5.430;2023-07-20T04:08:01;101583.00;;;14.89;100.00
71774;BME280;59607;52.130;5.430;2023-07-20T04:10:27;101582.97;;;14.98;100.00
71774;BME280;59607;52.130;5.430;2023-07-20T04:12:54;101587.19;;;15.07;100.00
71774;BME280;59607;52.130;5.430;2023-07-20T04:15:35;101584.88;;;15.12;100.00
71774;BME280;59607;52.130;5.430;2023-07-20T04:18:01;101587.59;;;15.27;100.00
71774;BME280;59607;52.130;5.430;2023-07-20T04:20:28;101597.59;;;15.40;100.00
71774;BME280;59607;52.130;5.430;2023-07-20T04:22:54;101600.44;;;15.54;100.00
71774;BME280;59607;52.130;5.430;2023-07-20T04:25:21;101603.50;;;15.66;100.00
71774;BME280;59607;52.130;5.430;2023-07-20T04:27:51;101605.78;;;15.69;100.00
71774;BME280;59607;52.130;5.430;2023-07-20T04:30:23;101605.31;;;15.65;100.00
71774;BME280;59607;52.130;5.430;2023-07-20T04:32:56;101606.03;;;15.59;100.00
71774;BME280;59607;52.130;5.430;2023-07-20T04:35:46;101607.38;;;15.55;100.00
71774;BME280;59607;52.130;5.430;2023-07-20T04:38:19;101600.53;;;15.46;100.00
71774;BME280;59607;52.130;5.430;2023-07-20T04:40:48;101604.84;;;15.38;100.00
71774;BME280;59607;52.130;5.430;2023-07-20T04:43:16;101610.66;;;15.34;100.00
71774;BME280;59607;52.130;5.430;2023-07-20T04:45:46;101612.66;;;15.32;100.00
71774;BME280;59607;52.130;5.430;2023-07-20T04:48:19;101615.66;;;15.28;100.00
71774;BME280;59607;52.130;5.430;2023-07-20T04:50:49;101611.19;;;15.29;100.00
71774;BME280;59607;52.130;5.430;2023-07-20T04:53:19;101620.41;;;15.33;100.00
71774;BME280;59607;52.130;5.430;2023-07-20T04:55:49;101619.84;;;15.46;100.00
71774;BME280;59607;52.130;5.430;2023-07-20T04:58:22;101607.88;;;15.59;100.00
71774;BME280;59607;52.130;5.430;2023-07-20T05:00:49;101617.16;;;16.32;100.00
71774;BME280;59607;52.130;5.430;2023-07-20T05:03:16;101604.22;;;16.89;100.00
71774;BME280;59607;52.130;5.430;2023-07-20T05:06:01;101598.28;;;19.23;95.04
71774;BME280;59607;52.130;5.430;2023-07-20T05:08:42;101591.03;;;22.00;70.82
71774;BME280;59607;52.130;5.430;2023-07-20T05:11:14;101587.34;;;23.67;61.65
71774;BME280;59607;52.130;5.430;2023-07-20T05:13:41;101591.97;;;24.61;57.42
71774;BME280;59607;52.130;5.430;2023-07-20T05:16:07;101585.00;;;25.41;54.64
71774;BME280;59607;52.130;5.430;2023-07-20T05:18:39;101593.28;;;26.13;52.57
71774;BME280;59607;52.130;5.430;2023-07-20T05:21:05;101589.25;;;26.60;50.21
71774;BME280;59607;52.130;5.430;2023-07-20T05:23:32;101595.34;;;26.78;50.30
71774;BME280;59607;52.130;5.430;2023-07-20T05:26:12;101587.09;;;27.18;48.16
71774;BME280;59607;52.130;5.430;2023-07-20T05:28:44;101587.00;;;27.40;48.03
71774;BME280;59607;52.130;5.430;2023-07-20T05:31:11;101588.75;;;27.62;46.97
71774;BME280;59607;52.130;5.430;2023-07-20T05:33:37;101596.47;;;27.91;46.42
71774;BME280;59607;52.130;5.430;2023-07-20T05:36:09;101599.53;;;28.11;46.51
71774;BME280;59607;52.130;5.430;2023-07-20T05:38:36;101602.63;;;28.51;44.98
71774;BME280;59607;52.130;5.430;2023-07-20T05:41:10;101601.81;;;28.50;44.57
71774;BME280;59607;52.130;5.430;2023-07-20T05:43:36;101605.06;;;28.52;44.97
71774;BME280;59607;52.130;5.430;2023-07-20T05:46:09;101607.00;;;28.88;43.70
71774;BME280;59607;52.130;5.430;2023-07-20T05:48:38;101600.28;;;29.27;43.28
71774;BME280;59607;52.130;5.430;2023-07-20T05:51:05;101599.75;;;29.36;42.24
71774;BME280;59607;52.130;5.430;2023-07-20T05:53:51;101601.81;;;29.75;42.77
71774;BME280;59607;52.130;5.430;2023-07-20T05:56:18;101599.69;;;29.67;41.88
71774;BME280;59607;52.130;5.430;2023-07-20T05:58:45;101597.50;;;29.74;41.48
71774;BME280;59607;52.130;5.430;2023-07-20T06:01:12;101600.38;;;30.04;41.14
71774;BME280;59607;52.130;5.430;2023-07-20T06:03:39;101600.03;;;30.26;40.99
71774;BME280;59607;52.130;5.430;2023-07-20T06:06:09;101602.22;;;30.19;41.08
71774;BME280;59607;52.130;5.430;2023-07-20T06:08:40;101616.22;;;29.34;42.31
71774;BME280;59607;52.130;5.430;2023-07-20T06:11:07;101607.84;;;29.20;42.36
71774;BME280;59607;52.130;5.430;2023-07-20T06:13:33;101610.69;;;29.91;41.57
71774;BME280;59607;52.130;5.430;2023-07-20T06:16:00;101613.06;;;30.09;40.64
71774;BME280;59607;52.130;5.430;2023-07-20T06:18:30;101622.44;;;29.14;42.40
71774;BME280;59607;52.130;5.430;2023-07-20T06:20:57;101616.13;;;27.10;45.60
71774;BME280;59607;52.130;5.430;2023-07-20T06:23:24;101622.63;;;25.58;49.92
71774;BME280;59607;52.130;5.430;2023-07-20T06:25:56;101626.56;;;24.74;51.62
71774;BME280;59607;52.130;5.430;2023-07-20T06:28:24;101627.88;;;23.95;54.03
71774;BME280;59607;52.130;5.430;2023-07-20T06:31:01;101625.22;;;23.16;55.58
71774;BME280;59607;52.130;5.430;2023-07-20T06:33:28;101632.50;;;22.78;57.11
71774;BME280;59607;52.130;5.430;2023-07-20T06:36:19;101637.19;;;22.83;57.06
71774;BME280;59607;52.130;5.430;2023-07-20T06:38:46;101632.66;;;22.46;58.50
71774;BME280;59607;52.130;5.430;2023-07-20T06:41:33;101635.25;;;22.15;59.51
71774;BME280;59607;52.130;5.430;2023-07-20T06:44:05;101645.25;;;21.75;60.40
71774;BME280;59607;52.130;5.430;2023-07-20T06:46:31;101648.06;;;21.29;61.34
71774;BME280;59607;52.130;5.430;2023-07-20T06:49:01;101649.13;;;21.22;62.03
71774;BME280;59607;52.130;5.430;2023-07-20T06:51:47;101648.56;;;21.45;61.12
71774;BME280;59607;52.130;5.430;2023-07-20T06:54:14;101646.16;;;21.37;62.00
71774;BME280;59607;52.130;5.430;2023-07-20T06:56:40;101649.31;;;21.20;62.56
71774;BME280;59607;52.130;5.430;2023-07-20T06:59:12;101654.78;;;21.00;63.80
71774;BME280;59607;52.130;5.430;2023-07-20T07:01:39;101656.69;;;20.92;64.45
71774;BME280;59607;52.130;5.430;2023-07-20T07:04:06;101659.34;;;20.86;64.33
71774;BME280;59607;52.130;5.430;2023-07-20T07:06:37;101660.13;;;20.93;64.16
71774;BME280;59607;52.130;5.430;2023-07-20T07:09:07;101653.44;;;20.70;65.17
71774;BME280;59607;52.130;5.430;2023-07-20T07:11:48;101658.00;;;20.49;65.68
71774;BME280;59607;52.130;5.430;2023-07-20T07:14:28;101652.94;;;20.34;65.61
71774;BME280;59607;52.130;5.430;2023-07-20T07:17:01;101658.06;;;20.36;65.82
71774;BME280;59607;52.130;5.430;2023-07-20T07:19:34;101654.81;;;20.20;66.44
71774;BME280;59607;52.130;5.430;2023-07-20T07:22:04;101653.19;;;20.12;67.04
71774;BME280;59607;52.130;5.430;2023-07-20T07:24:31;101653.56;;;20.29;67.27
71774;BME280;59607;52.130;5.430;2023-07-20T07:27:20;101657.44;;;21.00;64.44
71774;BME280;59607;52.130;5.430;2023-07-20T07:29:47;101650.13;;;21.27;62.53
71774;BME280;59607;52.130;5.430;2023-07-20T07:32:15;101657.50;;;21.25;61.44
71774;BME280;59607;52.130;5.430;2023-07-20T07:34:43;101654.63;;;21.27;62.21
71774;BME280;59607;52.130;5.430;2023-07-20T07:37:13;101650.72;;;21.29;60.90
71774;BME280;59607;52.130;5.430;2023-07-20T07:39:39;101650.38;;;21.19;60.53
71774;BME280;59607;52.130;5.430;2023-07-20T07:42:06;101656.84;;;21.30;60.38
71774;BME280;59607;52.130;5.430;2023-07-20T07:44:37;101653.91;;;21.70;58.42
71774;BME280;59607;52.130;5.430;2023-07-20T07:47:05;101656.22;;;21.92;57.55
71774;BME280;59607;52.130;5.430;2023-07-20T07:49:35;101653.34;;;22.13;58.43
71774;BME280;59607;52.130;5.430;2023-07-20T07:52:03;101652.91;;;21.97;57.83
71774;BME280;59607;52.130;5.430;2023-07-20T07:54:36;101658.69;;;22.13;57.24
71774;BME280;59607;52.130;5.430;2023-07-20T07:57:02;101650.19;;;22.23;55.90
71774;BME280;59607;52.130;5.430;2023-07-20T07:59:29;101655.34;;;21.99;55.32
71774;BME280;59607;52.130;5.430;2023-07-20T08:02:00;101658.31;;;21.58;55.28
71774;BME280;59607;52.130;5.430;2023-07-20T08:04:26;101659.06;;;21.40;55.10
71774;BME280;59607;52.130;5.430;2023-07-20T08:06:53;101660.31;;;21.37;55.49
71774;BME280;59607;52.130;5.430;2023-07-20T08:09:25;101662.63;;;21.27;54.40
71774;BME280;59607;52.130;5.430;2023-07-20T08:11:56;101661.72;;;21.40;55.26
71774;BME280;59607;52.130;5.430;2023-07-20T08:14:25;101652.66;;;21.80;55.28
71774;BME280;59607;52.130;5.430;2023-07-20T08:16:54;101652.88;;;21.78;55.81
71774;BME280;59607;52.130;5.430;2023-07-20T08:19:21;101647.56;;;22.16;54.96
71774;BME280;59607;52.130;5.430;2023-07-20T08:21:55;101647.66;;;22.28;53.95
71774;BME280;59607;52.130;5.430;2023-07-20T08:24:21;101642.31;;;22.28;52.77
71774;BME280;59607;52.130;5.430;2023-07-20T08:26:48;101649.75;;;22.26;52.50
71774;BME280;59607;52.130;5.430;2023-07-20T08:29:20;101648.19;;;22.37;52.10
71774;BME280;59607;52.130;5.430;2023-07-20T08:31:46;101649.16;;;22.42;51.98
71774;BME280;59607;52.130;5.430;2023-07-20T08:34:13;101647.88;;;22.45;52.42
71774;BME280;59607;52.130;5.430;2023-07-20T08:36:57;101643.44;;;22.20;50.78
71774;BME280;59607;52.130;5.430;2023-07-20T08:39:24;101651.38;;;22.27;50.96
71774;BME280;59607;52.130;5.430;2023-07-20T08:41:51;101654.50;;;22.42;49.98
71774;BME280;59607;52.130;5.430;2023-07-20T08:44:18;101653.97;;;22.34;47.27
71774;BME280;59607;52.130;5.430;2023-07-20T08:46:49;101657.59;;;22.02;44.78
71774;BME280;59607;52.130;5.430;2023-07-20T08:49:18;101651.28;;;22.15;47.50
71774;BME280;59607;52.130;5.430;2023-07-20T08:51:59;101653.13;;;21.96;48.27
71774;BME280;59607;52.130;5.430;2023-07-20T08:54:42;101660.69;;;21.73;49.27
71774;BME280;59607;52.130;5.430;2023-07-20T08:57:23;101658.66;;;21.68;49.02
71774;BME280;59607;52.130;5.430;2023-07-20T08:59:52;101659.25;;;22.22;48.37
71774;BME280;59607;52.130;5.430;2023-07-20T09:02:25;101649.59;;;22.58;47.75
71774;BME280;59607;52.130;5.430;2023-07-20T09:05:13;101648.06;;;22.69;45.96
71774;BME280;59607;52.130;5.430;2023-07-20T09:07:48;101648.78;;;22.76;46.91
71774;BME280;59607;52.130;5.430;2023-07-20T09:10:22;101652.28;;;23.08;45.13
71774;BME280;59607;52.130;5.430;2023-07-20T09:12:49;101649.06;;;22.87;45.09
71774;BME280;59607;52.130;5.430;2023-07-20T09:15:19;101643.59;;;22.82;45.50
71774;BME280;59607;52.130;5.430;2023-07-20T09:17:50;101644.34;;;23.01;44.89
71774;BME280;59607;52.130;5.430;2023-07-20T09:20:20;101635.59;;;23.36;45.53
71774;BME280;59607;52.130;5.430;2023-07-20T09:22:52;101638.38;;;23.72;45.31
71774;BME280;59607;52.130;5.430;2023-07-20T09:25:19;101637.53;;;24.08;43.51
71774;BME280;59607;52.130;5.430;2023-07-20T09:27:52;101641.28;;;23.95;43.29
71774;BME280;59607;52.130;5.430;2023-07-20T09:30:24;101645.31;;;23.49;43.76
71774;BME280;59607;52.130;5.430;2023-07-20T09:32:58;101643.72;;;23.17;43.04
71774;BME280;59607;52.130;5.430;2023-07-20T09:35:25;101648.81;;;23.62;42.56
71774;BME280;59607;52.130;5.430;2023-07-20T09:38:08;101648.47;;;23.46;43.01
71774;BME280;59607;52.130;5.430;2023-07-20T09:40:59;101639.44;;;23.28;41.92
71774;BME280;59607;52.130;5.430;2023-07-20T09:43:31;101646.28;;;23.55;43.33
71774;BME280;59607;52.130;5.430;2023-07-20T09:46:06;101638.56;;;23.59;41.44
71774;BME280;59607;52.130;5.430;2023-07-20T09:48:35;101631.13;;;23.18;42.71
71774;BME280;59607;52.130;5.430;2023-07-20T09:51:25;101636.47;;;23.18;43.97
71774;BME280;59607;52.130;5.430;2023-07-20T09:53:55;101633.94;;;23.90;42.30
71774;BME280;59607;52.130;5.430;2023-07-20T09:56:26;101629.59;;;24.13;42.39
71774;BME280;59607;52.130;5.430;2023-07-20T09:58:58;101632.19;;;24.20;42.08
71774;BME280;59607;52.130;5.430;2023-07-20T10:01:28;101631.00;;;24.39;40.73
71774;BME280;59607;52.130;5.430;2023-07-20T10:03:57;101633.94;;;24.02;41.75
71774;BME280;59607;52.130;5.430;2023-07-20T10:06:32;101634.63;;;23.73;42.22
71774;BME280;59607;52.130;5.430;2023-07-20T10:09:06;101630.66;;;23.64;43.09
71774;BME280;59607;52.130;5.430;2023-07-20T10:11:36;101633.56;;;23.50;42.83
71774;BME280;59607;52.130;5.430;2023-07-20T10:14:06;101623.91;;;23.73;41.31
71774;BME280;59607;52.130;5.430;2023-07-20T10:16:43;101626.66;;;24.38;40.36
71774;BME280;59607;52.130;5.430;2023-07-20T10:19:36;101626.47;;;24.69;40.16
71774;BME280;59607;52.130;5.430;2023-07-20T10:22:19;101629.81;;;24.35;39.48
71774;BME280;59607;52.130;5.430;2023-07-20T10:24:50;101625.19;;;23.95;40.18
71774;BME280;59607;52.130;5.430;2023-07-20T10:27:23;101624.50;;;23.99;42.35
71774;BME280;59607;52.130;5.430;2023-07-20T10:29:54;101620.94;;;24.47;40.47
71774;BME280;59607;52.130;5.430;2023-07-20T10:32:25;101620.53;;;24.67;38.58
71774;BME280;59607;52.130;5.430;2023-07-20T10:34:52;101625.88;;;24.26;38.82
71774;BME280;59607;52.130;5.430;2023-07-20T10:43:07;101620.88;;;24.18;40.90
71774;BME280;59607;52.130;5.430;2023-07-20T10:45:44;101610.88;;;24.25;40.27
71774;BME280;59607;52.130;5.430;2023-07-20T10:48:22;101610.97;;;24.59;39.44
71774;BME280;59607;52.130;5.430;2023-07-20T10:51:31;101609.75;;;25.08;39.40
71774;BME280;59607;52.130;5.430;2023-07-20T10:53:56;101603.56;;;25.25;38.07
71774;BME280;59607;52.130;5.430;2023-07-20T10:56:28;101602.78;;;25.42;37.71
71774;BME280;59607;52.130;5.430;2023-07-20T10:58:59;101606.75;;;25.56;37.81
71774;BME280;59607;52.130;5.430;2023-07-20T11:01:41;101603.72;;;25.53;36.83
71774;BME280;59607;52.130;5.430;2023-07-20T11:04:10;101605.09;;;25.21;36.82
71774;BME280;59607;52.130;5.430;2023-07-20T11:07:00;101604.91;;;24.93;36.93
71774;BME280;59607;52.130;5.430;2023-07-20T11:09:50;101599.72;;;24.74;38.29
71774;BME280;59607;52.130;5.430;2023-07-20T11:12:21;101597.28;;;25.02;37.84
71774;BME280;59607;52.130;5.430;2023-07-20T11:15:09;101589.22;;;25.54;37.56
71774;BME280;59607;52.130;5.430;2023-07-20T11:17:35;101595.16;;;25.90;36.66
71774;BME280;59607;52.130;5.430;2023-07-20T11:20:06;101593.47;;;26.29;35.92
71774;BME280;59607;52.130;5.430;2023-07-20T11:22:38;101590.78;;;26.51;36.39
71774;BME280;59607;52.130;5.430;2023-07-20T11:25:13;101583.91;;;26.38;35.55
71774;BME280;59607;52.130;5.430;2023-07-20T11:27:45;101585.09;;;26.25;37.08
71774;BME280;59607;52.130;5.430;2023-07-20T11:30:16;101575.25;;;26.86;34.56
71774;BME280;59607;52.130;5.430;2023-07-20T11:32:50;101576.75;;;26.77;34.69
71774;BME280;59607;52.130;5.430;2023-07-20T11:35:20;101570.03;;;27.02;35.83
71774;BME280;59607;52.130;5.430;2023-07-20T11:37:47;101576.03;;;26.86;34.84
71774;BME280;59607;52.130;5.430;2023-07-20T11:40:22;101568.41;;;26.45;34.39
71774;BME280;59607;52.130;5.430;2023-07-20T11:42:53;101567.72;;;26.55;34.43
71774;BME280;59607;52.130;5.430;2023-07-20T11:45:45;101575.91;;;26.71;35.09
71774;BME280;59607;52.130;5.430;2023-07-20T11:48:15;101571.88;;;26.73;34.21
71774;BME280;59607;52.130;5.430;2023-07-20T11:50:47;101563.88;;;26.79;33.16
71774;BME280;59607;52.130;5.430;2023-07-20T11:53:16;101565.91;;;27.32;33.78
71774;BME280;59607;52.130;5.430;2023-07-20T11:55:49;101554.78;;;27.61;32.48
71774;BME280;59607;52.130;5.430;2023-07-20T11:58:16;101565.19;;;27.42;32.73
71774;BME280;59607;52.130;5.430;2023-07-20T12:00:54;101558.59;;;27.22;32.50
71774;BME280;59607;52.130;5.430;2023-07-20T12:03:22;101555.63;;;27.18;32.33
71774;BME280;59607;52.130;5.430;2023-07-20T12:05:49;101553.22;;;27.27;32.98
71774;BME280;59607;52.130;5.430;2023-07-20T12:08:28;101557.22;;;27.57;32.69
71774;BME280;59607;52.130;5.430;2023-07-20T12:10:58;101559.09;;;27.19;34.43
71774;BME280;59607;52.130;5.430;2023-07-20T12:13:38;101561.44;;;26.77;34.97
71774;BME280;59607;52.130;5.430;2023-07-20T12:16:15;101565.50;;;26.30;34.17
71774;BME280;59607;52.130;5.430;2023-07-20T12:18:47;101556.63;;;26.52;34.34
71774;BME280;59607;52.130;5.430;2023-07-20T12:21:23;101542.03;;;27.03;34.23
71774;BME280;59607;52.130;5.430;2023-07-20T12:23:49;101540.50;;;27.17;34.14
71774;BME280;59607;52.130;5.430;2023-07-20T12:26:19;101536.84;;;27.34;33.78
71774;BME280;59607;52.130;5.430;2023-07-20T12:28:52;101542.28;;;26.68;34.06
71774;BME280;59607;52.130;5.430;2023-07-20T12:31:21;101552.44;;;25.94;34.56
71774;BME280;59607;52.130;5.430;2023-07-20T12:33:52;101548.38;;;25.69;36.55
71774;BME280;59607;52.130;5.430;2023-07-20T12:36:19;101553.13;;;25.44;37.55
71774;BME280;59607;52.130;5.430;2023-07-20T12:38:53;101549.47;;;24.99;37.25
71774;BME280;59607;52.130;5.430;2023-07-20T12:41:20;101550.94;;;24.89;38.34
71774;BME280;59607;52.130;5.430;2023-07-20T12:44:00;101547.63;;;24.99;37.58
71774;BME280;59607;52.130;5.430;2023-07-20T12:46:36;101544.97;;;25.39;38.26
71774;BME280;59607;52.130;5.430;2023-07-20T12:49:03;101540.75;;;25.26;38.02
71774;BME280;59607;52.130;5.430;2023-07-20T12:51:32;101553.50;;;24.84;39.32
71774;BME280;59607;52.130;5.430;2023-07-20T12:53:59;101548.28;;;24.77;38.74
71774;BME280;59607;52.130;5.430;2023-07-20T12:56:25;101543.75;;;24.78;39.49
71774;BME280;59607;52.130;5.430;2023-07-20T12:58:55;101543.41;;;24.74;38.83
71774;BME280;59607;52.130;5.430;2023-07-20T13:01:24;101547.78;;;24.63;39.30
71774;BME280;59607;52.130;5.430;2023-07-20T13:03:50;101548.44;;;24.71;39.40
71774;BME280;59607;52.130;5.430;2023-07-20T13:06:23;101546.75;;;24.82;39.71
71774;BME280;59607;52.130;5.430;2023-07-20T13:08:56;101535.31;;;25.04;39.46
71774;BME280;59607;52.130;5.430;2023-07-20T13:11:33;101539.13;;;25.08;39.10
71774;BME280;59607;52.130;5.430;2023-07-20T13:14:01;101531.31;;;25.06;39.12
71774;BME280;59607;52.130;5.430;2023-07-20T13:16:31;101522.78;;;25.09;38.59
71774;BME280;59607;52.130;5.430;2023-07-20T13:18:58;101526.31;;;25.27;39.80
71774;BME280;59607;52.130;5.430;2023-07-20T13:21:24;101525.28;;;25.50;39.34